Record high temperature 35.2°C Record low temperature -28.5°C Record high gust 73.6 km/h Record high average 52.2 km/h Record daily rain 78.0 mm Record low windchill -39.6°C Record high barometer 1045.2 hPa Record low barometer 973.0 hPa
Daily high pressure 1043 hPa Daily low pressure 1035 hPa Daily low windchill -6.7°C Daily high heat index 7.3°C Daily high gust speed 21.2 kmh E Daily high average speed 14.0 kmh ENE
Beaconsfield Home Weather Data WMR-968
LAST READING AT TIME: 22:55 DATE: April 17 2014, time of next update: 23:00
Current WeatherNight time/Dry/A few clouds Current Temperature 4.4°C (39.9°F), Apparent temp 1.7°C
Maximum Temperature (since midnight)7.3°C at: 16:08 Minimum Temperature (since midnight)-4.4°C at: 04:28
Average windspeed (ten minute)4.8 kmh (2.6 kts) Wind Direction (ten minute)E (92°)
Windchill Temperature 2.9°C Maximum Gust (last hour)13.3 kmh (7.2 kts) at: 22:00
Maximum Gust (since midnight)21.2 kmh (11.5 kts) at: 11:14 Maximum 1 minute average (since midnight)14.0 kmh (7.6 kts) at: 10:49
Rainfall (last hour)0.0 mm Rainfall (since midnight)0.0 mm (0.00 in.)---
Rainfall This month 68.8 mm (2.71 in.) Rainfall To date this year 108.8 mm (4.28 in.)
Maximum rain per minute (last hour)0.0 mm/min Maximum rain per hour (last 6 hours)0.0 mm/hour
Yesterdays rainfall 0.2 mm DewPoint -12.1°C (Wet Bulb :-0.5°C )
Humidity 29 %, Humidex 0.2°C Barometer corrected to msl1035 hPa
Pressure change 0 hPa (last hour) Trend (last hour)STEADY
Pressure change (last 12 hours)-8 hPa Pressure change (last 6 hours)-4 hPa
Current Indoor Temp. 21.6°C
Current Indoor Hum. 26%
Current 00:00 hours of sunshine today, current sky: Night time/Dry/A few clouds
Sunshine hours for the year: 00:01 hrs Sunshine hours for the month: 00:00 hrs
Current evapotranspiration rate 3.5 mm per day. Yesterday's reading 2.7




Weather report/warning/Metars

Montreal / Pierre Elliot Trudeau International Airport, Que, Canada (CYUL) 45-28N 073-45W 36M
Apr 17, 2014 - 10:00 PM EDT / 2014.04.18 0200 UTC
Wind: from the ENE (070 degrees) at 8 MPH (7 KT):0
Visibility: 15 mile(s):0
Sky conditions: mostly clear
Temperature: 41 F (5 C)
Dew Point: 23 F (-5 C)
Relative Humidity: 48%
Pressure (altimeter): 30.55 in. Hg (1034 hPa)
ob: CYUL 180200Z 07007KT 15SM FEW240 05/M05 A3055 RMK CI1 SLP347
cycle: 2
Sherbrooke, Que., Canada (CYSC) 45-24N 071-53W
Apr 17, 2014 - 10:00 PM EDT / 2014.04.18 0200 UTC
Wind: from the SE (140 degrees) at 9 MPH (8 KT):0
Visibility: 9 mile(s):0
Sky conditions: clear
Temperature: 35 F (2 C)
Windchill: 28 F (-2 C):1
Dew Point: 17 F (-8 C)
Relative Humidity: 47%
Pressure (altimeter): 30.59 in. Hg (1035 hPa)
ob: CYSC 180200Z AUTO 14008KT 9SM CLR 02/M08 A3059 RMK SLP372
cycle: 2
St Jovite Automatic Weather Reporting System , Canada (CWJT) 46-04N 074-32W
Apr 17, 2014 - 07:00 PM EDT / 2014.04.17 2300 UTC
Wind: from the SE (140 degrees) at 3 MPH (3 KT):0
Temperature: 39.7 F (4.3 C)
Dew Point: 19.8 F (-6.8 C)
Relative Humidity: 44%
Pressure tendency: 0.05 inches (1.8 hPa) lower than three hours ago
ob: CWJT 172300Z AUTO 14003KT 04/M07 RMK AO1 SLP363 T00431068 56018
cycle: 23
Ste Anne De Bell 1, Canada (CWVQ) 45-26N 073-56W
Apr 17, 2014 - 10:00 PM EDT / 2014.04.18 0200 UTC
Wind: from the E (090 degrees) at 8 MPH (7 KT):0
Temperature: 41.2 F (5.1 C)
Dew Point: 23.2 F (-4.9 C)
Relative Humidity: 48%
Pressure tendency: 0.04 inches (1.2 hPa) lower than three hours ago
ob: CWVQ 180200Z AUTO 09007KT 05/M05 RMK AO1 SLP343 T00511049 57012
cycle: 2
Montreal / Mirabel, Canada (CYMX) 45-41N 074-02W
Apr 17, 2014 - 10:00 PM EDT / 2014.04.18 0200 UTC
Wind: from the ENE (060 degrees) at 5 MPH (4 KT):0
Visibility: 25 mile(s):0
Sky conditions: overcast
Temperature: 33 F (1 C)
Windchill: 28 F (-2 C):1
Dew Point: 23 F (-5 C)
Relative Humidity: 64%
Pressure (altimeter): 30.56 in. Hg (1034 hPa)
ob: CYMX 180200Z 06004KT 25SM OVC250 01/M05 A3056 RMK CI8 SLP354
cycle: 2
L'Acadie, Canada (CWIZ) 45-18N 073-21W
Apr 17, 2014 - 10:00 PM EDT / 2014.04.18 0200 UTC
Wind: from the ESE (120 degrees) at 6 MPH (5 KT):0
Temperature: 35.6 F (2.0 C)
Dew Point: 25.7 F (-3.5 C)
Relative Humidity: 66%
ob: CWIZ 180200Z AUTO 12005KT 02/M04 RMK AO1 T00201035
cycle: 2
St Anicet, Canada (CWBZ) 45-07N 074-17W 49M
Apr 17, 2014 - 10:00 PM EDT / 2014.04.18 0200 UTC
Wind: from the NE (050 degrees) at 6 MPH (5 KT):0
Temperature: 34.0 F (1.1 C)
Windchill: 28 F (-2 C):1
Dew Point: 24.6 F (-4.1 C)
Relative Humidity: 68%
Pressure tendency: 0.01 inches (0.4 hPa) lower than three hours ago
ob: CWBZ 180200Z AUTO 05005KT 01/M04 RMK AO1 SLP339 T00111041 56004
cycle: 2
Mount Washington, NH, United States (KMWN) 44-16N 071-18W 1910M
Apr 17, 2014 - 09:49 PM EDT / 2014.04.18 0149 UTC
Wind: from the S (170 degrees) at 25 MPH (22 KT) gusting to 33 MPH (29 KT):0
Visibility: 100 mile(s):0
Sky conditions: mostly cloudy
Temperature: 24 F (-4 C)
Windchill: 8 F (-13 C):1
Dew Point: -13 F (-25 C)
Relative Humidity: 17%
ob: KMWN 180149Z 17022G29KT 100SM FEW160 BKN180 BKN200 M04/M25 RMK 
cycle: 2
Vancouver International Air-Port, B. C., Canada (CYVR) 49-11N 123-10W 2M
Apr 17, 2014 - 10:39 PM EDT / 2014.04.18 0239 UTC
Wind: from the S (190 degrees) at 8 MPH (7 KT):0
Visibility: 8 mile(s):0
Sky conditions: overcast
Weather: light rain
Temperature: 50 F (10 C)
Dew Point: 48 F (9 C)
Relative Humidity: 93%
Pressure (altimeter): 29.67 in. Hg (1004 hPa)
ob: CYVR 180239Z 19007KT 8SM -RA FEW007 SCT012 BKN038 OVC051 10/09 A2967 RMK SF1SC2SC4NS1 SLP047
cycle: 2



The data is logged at two minute intervals, but there is data recorded every minute.

Use the RELOAD facility on your browser to retrieve the latest data.

Click here for a daily update of the averages/extremes to date for the month

Click here for Real Time Weather



Created by "Weather Display" software version 10.37R Build 51 at this start time/date 00:29 2014-04-15